RJAZ(METAR)
05/27 16:00
RJAZ 270700Z 23009KT 9999 FEW015 23/18 Q1011 RMK A2987=
戻る
トップページへ戻る
IMOC Co,.Ltd.